Terminal Aerodrome Forecast
Issued by NWS

Home | Current Version | Previous Version | Text Only | Print | Product List | Glossary Off
Versions: 1 2 3 4 5 6 7 8 9 10 11 12 13 14 15 16 17 18 19 20 21 22 23 24 25 26 27 28 29 30 31

000
FTUS43 KABR 181004 AAA
TAFATY
TAF AMD
KATY 181004Z 1810/1906 12010G15KT P6SM OVC100
     FM181500 19016KT P6SM BKN100
     FM181700 23015KT P6SM BKN100
     FM182000 30014KT P6SM BKN080
     FM182300 35017G24KT P6SM BKN035
     FM190300 01015G22KT P6SM BKN015=

USA.gov is the U.S. government's official web portal to all federal, state and local government web resources and services.